sensor_id;sensor_type;location;lat;lon;timestamp;P1;durP1;ratioP1;P2;durP2;ratioP2
38264;SDS011;24062;47.480;8.768;2022-08-01T00:02:05;10.13;;;1.93;;
38264;SDS011;24062;47.480;8.768;2022-08-01T00:04:32;10.80;;;2.60;;
38264;SDS011;24062;47.480;8.768;2022-08-01T00:06:59;13.80;;;2.53;;
38264;SDS011;24062;47.480;8.768;2022-08-01T00:09:27;12.40;;;2.90;;
38264;SDS011;24062;47.480;8.768;2022-08-01T00:11:54;11.30;;;2.30;;
38264;SDS011;24062;47.480;8.768;2022-08-01T00:14:21;10.90;;;2.30;;
38264;SDS011;24062;47.480;8.768;2022-08-01T00:16:48;11.80;;;2.23;;
38264;SDS011;24062;47.480;8.768;2022-08-01T00:19:14;10.73;;;2.47;;
38264;SDS011;24062;47.480;8.768;2022-08-01T00:21:41;10.50;;;2.13;;
38264;SDS011;24062;47.480;8.768;2022-08-01T00:24:08;12.00;;;2.67;;
38264;SDS011;24062;47.480;8.768;2022-08-01T00:26:37;13.80;;;2.63;;
38264;SDS011;24062;47.480;8.768;2022-08-01T00:29:03;11.63;;;2.50;;
38264;SDS011;24062;47.480;8.768;2022-08-01T00:31:30;11.90;;;2.53;;
38264;SDS011;24062;47.480;8.768;2022-08-01T00:33:57;11.40;;;2.27;;
38264;SDS011;24062;47.480;8.768;2022-08-01T00:36:24;10.07;;;2.13;;
38264;SDS011;24062;47.480;8.768;2022-08-01T00:38:51;13.00;;;2.73;;
38264;SDS011;24062;47.480;8.768;2022-08-01T00:41:18;11.70;;;2.60;;
38264;SDS011;24062;47.480;8.768;2022-08-01T00:43:46;11.10;;;2.30;;
38264;SDS011;24062;47.480;8.768;2022-08-01T00:46:13;11.73;;;2.30;;
38264;SDS011;24062;47.480;8.768;2022-08-01T00:48:40;11.17;;;2.30;;
38264;SDS011;24062;47.480;8.768;2022-08-01T00:51:07;14.40;;;2.23;;
38264;SDS011;24062;47.480;8.768;2022-08-01T00:53:35;10.50;;;2.10;;
38264;SDS011;24062;47.480;8.768;2022-08-01T00:56:02;13.50;;;2.70;;
38264;SDS011;24062;47.480;8.768;2022-08-01T00:58:29;9.97;;;2.30;;
38264;SDS011;24062;47.480;8.768;2022-08-01T01:00:58;11.23;;;2.20;;
38264;SDS011;24062;47.480;8.768;2022-08-01T01:03:25;13.53;;;2.50;;
38264;SDS011;24062;47.480;8.768;2022-08-01T01:05:55;11.27;;;2.40;;
38264;SDS011;24062;47.480;8.768;2022-08-01T01:08:32;11.00;;;2.30;;
38264;SDS011;24062;47.480;8.768;2022-08-01T01:11:05;10.67;;;2.17;;
38264;SDS011;24062;47.480;8.768;2022-08-01T01:13:38;14.10;;;2.63;;
38264;SDS011;24062;47.480;8.768;2022-08-01T01:16:11;12.60;;;2.23;;
38264;SDS011;24062;47.480;8.768;2022-08-01T01:18:42;13.73;;;2.83;;
38264;SDS011;24062;47.480;8.768;2022-08-01T01:21:13;10.10;;;2.20;;
38264;SDS011;24062;47.480;8.768;2022-08-01T01:24:16;11.10;;;2.13;;
38264;SDS011;24062;47.480;8.768;2022-08-01T01:26:52;11.47;;;2.60;;
38264;SDS011;24062;47.480;8.768;2022-08-01T01:29:29;10.83;;;2.17;;
38264;SDS011;24062;47.480;8.768;2022-08-01T01:32:02;12.33;;;2.33;;
38264;SDS011;24062;47.480;8.768;2022-08-01T01:34:33;11.00;;;2.60;;
38264;SDS011;24062;47.480;8.768;2022-08-01T01:37:04;11.93;;;2.60;;
38264;SDS011;24062;47.480;8.768;2022-08-01T01:39:35;12.40;;;2.37;;
38264;SDS011;24062;47.480;8.768;2022-08-01T01:42:04;14.90;;;3.27;;
38264;SDS011;24062;47.480;8.768;2022-08-01T01:44:34;13.10;;;2.77;;
38264;SDS011;24062;47.480;8.768;2022-08-01T01:47:03;12.90;;;2.70;;
38264;SDS011;24062;47.480;8.768;2022-08-01T01:49:31;11.87;;;2.60;;
38264;SDS011;24062;47.480;8.768;2022-08-01T01:51:59;12.07;;;2.70;;
38264;SDS011;24062;47.480;8.768;2022-08-01T01:54:28;12.47;;;2.30;;
38264;SDS011;24062;47.480;8.768;2022-08-01T01:57:00;12.10;;;2.37;;
38264;SDS011;24062;47.480;8.768;2022-08-01T01:59:30;10.50;;;2.60;;
38264;SDS011;24062;47.480;8.768;2022-08-01T02:02:03;10.50;;;2.57;;
38264;SDS011;24062;47.480;8.768;2022-08-01T02:04:31;12.80;;;3.27;;
38264;SDS011;24062;47.480;8.768;2022-08-01T02:07:01;11.80;;;2.80;;
38264;SDS011;24062;47.480;8.768;2022-08-01T02:09:29;11.80;;;2.97;;
38264;SDS011;24062;47.480;8.768;2022-08-01T02:11:58;15.73;;;3.00;;
38264;SDS011;24062;47.480;8.768;2022-08-01T02:14:26;14.60;;;2.80;;
38264;SDS011;24062;47.480;8.768;2022-08-01T02:16:56;15.50;;;3.00;;
38264;SDS011;24062;47.480;8.768;2022-08-01T02:19:25;10.90;;;2.40;;
38264;SDS011;24062;47.480;8.768;2022-08-01T02:21:55;10.97;;;2.50;;
38264;SDS011;24062;47.480;8.768;2022-08-01T02:24:37;11.03;;;2.53;;
38264;SDS011;24062;47.480;8.768;2022-08-01T02:27:11;12.33;;;2.70;;
38264;SDS011;24062;47.480;8.768;2022-08-01T02:29:42;11.83;;;2.50;;
38264;SDS011;24062;47.480;8.768;2022-08-01T02:32:14;11.57;;;2.33;;
38264;SDS011;24062;47.480;8.768;2022-08-01T02:34:51;10.97;;;2.73;;
38264;SDS011;24062;47.480;8.768;2022-08-01T02:37:22;11.40;;;2.43;;
38264;SDS011;24062;47.480;8.768;2022-08-01T02:39:52;10.57;;;2.40;;
38264;SDS011;24062;47.480;8.768;2022-08-01T02:42:22;14.70;;;2.70;;
38264;SDS011;24062;47.480;8.768;2022-08-01T02:44:51;12.90;;;2.93;;
38264;SDS011;24062;47.480;8.768;2022-08-01T02:47:20;11.10;;;2.70;;
38264;SDS011;24062;47.480;8.768;2022-08-01T02:49:48;10.03;;;2.30;;
38264;SDS011;24062;47.480;8.768;2022-08-01T02:52:18;12.10;;;2.80;;
38264;SDS011;24062;47.480;8.768;2022-08-01T02:54:48;12.97;;;2.53;;
38264;SDS011;24062;47.480;8.768;2022-08-01T02:57:17;12.83;;;2.70;;
38264;SDS011;24062;47.480;8.768;2022-08-01T02:59:46;10.80;;;2.50;;
38264;SDS011;24062;47.480;8.768;2022-08-01T03:02:15;11.57;;;2.20;;
38264;SDS011;24062;47.480;8.768;2022-08-01T03:04:43;10.90;;;2.90;;
38264;SDS011;24062;47.480;8.768;2022-08-01T03:07:12;12.53;;;2.67;;
38264;SDS011;24062;47.480;8.768;2022-08-01T03:09:42;11.67;;;2.53;;
38264;SDS011;24062;47.480;8.768;2022-08-01T03:12:13;12.33;;;2.70;;
38264;SDS011;24062;47.480;8.768;2022-08-01T03:14:42;12.00;;;2.90;;
38264;SDS011;24062;47.480;8.768;2022-08-01T03:17:10;11.00;;;2.70;;
38264;SDS011;24062;47.480;8.768;2022-08-01T03:19:38;11.00;;;2.90;;
38264;SDS011;24062;47.480;8.768;2022-08-01T03:22:08;12.10;;;2.80;;
38264;SDS011;24062;47.480;8.768;2022-08-01T03:24:39;11.67;;;2.83;;
38264;SDS011;24062;47.480;8.768;2022-08-01T03:27:07;10.67;;;2.50;;
38264;SDS011;24062;47.480;8.768;2022-08-01T03:29:35;10.20;;;2.23;;
38264;SDS011;24062;47.480;8.768;2022-08-01T03:32:03;10.90;;;2.87;;
38264;SDS011;24062;47.480;8.768;2022-08-01T03:34:31;15.47;;;2.80;;
38264;SDS011;24062;47.480;8.768;2022-08-01T03:36:59;15.33;;;3.30;;
38264;SDS011;24062;47.480;8.768;2022-08-01T03:39:30;13.07;;;2.40;;
38264;SDS011;24062;47.480;8.768;2022-08-01T03:42:04;16.40;;;3.77;;
38264;SDS011;24062;47.480;8.768;2022-08-01T03:44:35;10.80;;;2.70;;
38264;SDS011;24062;47.480;8.768;2022-08-01T03:47:05;12.17;;;3.40;;
38264;SDS011;24062;47.480;8.768;2022-08-01T03:49:35;13.97;;;3.20;;
38264;SDS011;24062;47.480;8.768;2022-08-01T03:52:07;12.73;;;2.90;;
38264;SDS011;24062;47.480;8.768;2022-08-01T03:54:36;10.27;;;2.60;;
38264;SDS011;24062;47.480;8.768;2022-08-01T03:57:07;11.27;;;3.03;;
38264;SDS011;24062;47.480;8.768;2022-08-01T03:59:36;14.20;;;3.60;;
38264;SDS011;24062;47.480;8.768;2022-08-01T04:02:04;14.90;;;3.40;;
38264;SDS011;24062;47.480;8.768;2022-08-01T04:04:32;11.63;;;2.63;;
38264;SDS011;24062;47.480;8.768;2022-08-01T04:06:59;12.53;;;3.13;;
38264;SDS011;24062;47.480;8.768;2022-08-01T04:09:29;11.17;;;2.90;;
38264;SDS011;24062;47.480;8.768;2022-08-01T04:11:57;13.07;;;3.40;;
38264;SDS011;24062;47.480;8.768;2022-08-01T04:14:26;12.87;;;2.53;;
38264;SDS011;24062;47.480;8.768;2022-08-01T04:16:53;11.60;;;3.00;;
38264;SDS011;24062;47.480;8.768;2022-08-01T04:19:20;13.90;;;3.30;;
38264;SDS011;24062;47.480;8.768;2022-08-01T04:21:48;11.40;;;3.40;;
38264;SDS011;24062;47.480;8.768;2022-08-01T04:24:17;11.97;;;3.23;;
38264;SDS011;24062;47.480;8.768;2022-08-01T04:26:46;11.23;;;2.60;;
38264;SDS011;24062;47.480;8.768;2022-08-01T04:29:15;12.37;;;3.33;;
38264;SDS011;24062;47.480;8.768;2022-08-01T04:31:47;11.40;;;2.90;;
38264;SDS011;24062;47.480;8.768;2022-08-01T04:34:17;12.93;;;2.90;;
38264;SDS011;24062;47.480;8.768;2022-08-01T04:36:47;12.00;;;2.90;;
38264;SDS011;24062;47.480;8.768;2022-08-01T04:39:16;11.40;;;2.73;;
38264;SDS011;24062;47.480;8.768;2022-08-01T04:41:45;11.60;;;2.70;;
38264;SDS011;24062;47.480;8.768;2022-08-01T04:44:12;11.87;;;3.13;;
38264;SDS011;24062;47.480;8.768;2022-08-01T04:46:40;17.10;;;3.10;;
38264;SDS011;24062;47.480;8.768;2022-08-01T04:49:08;13.23;;;3.13;;
38264;SDS011;24062;47.480;8.768;2022-08-01T04:51:37;10.80;;;2.97;;
38264;SDS011;24062;47.480;8.768;2022-08-01T04:54:17;10.40;;;2.20;;
38264;SDS011;24062;47.480;8.768;2022-08-01T04:56:44;13.93;;;3.10;;
38264;SDS011;24062;47.480;8.768;2022-08-01T04:59:11;10.00;;;2.20;;
38264;SDS011;24062;47.480;8.768;2022-08-01T05:01:55;11.77;;;2.60;;
38264;SDS011;24062;47.480;8.768;2022-08-01T05:04:24;13.93;;;2.57;;
38264;SDS011;24062;47.480;8.768;2022-08-01T05:06:50;12.73;;;2.70;;
38264;SDS011;24062;47.480;8.768;2022-08-01T05:09:17;10.47;;;2.40;;
38264;SDS011;24062;47.480;8.768;2022-08-01T05:11:45;10.67;;;2.63;;
38264;SDS011;24062;47.480;8.768;2022-08-01T05:14:12;12.50;;;2.60;;
38264;SDS011;24062;47.480;8.768;2022-08-01T05:16:39;11.80;;;2.40;;
38264;SDS011;24062;47.480;8.768;2022-08-01T05:19:06;10.90;;;2.40;;
38264;SDS011;24062;47.480;8.768;2022-08-01T05:21:35;15.23;;;3.10;;
38264;SDS011;24062;47.480;8.768;2022-08-01T05:24:02;10.17;;;2.60;;
38264;SDS011;24062;47.480;8.768;2022-08-01T05:26:30;13.90;;;3.13;;
38264;SDS011;24062;47.480;8.768;2022-08-01T05:28:58;14.73;;;2.70;;
38264;SDS011;24062;47.480;8.768;2022-08-01T05:31:25;15.30;;;2.63;;
38264;SDS011;24062;47.480;8.768;2022-08-01T05:33:52;11.03;;;2.90;;
38264;SDS011;24062;47.480;8.768;2022-08-01T05:36:18;10.70;;;2.80;;
38264;SDS011;24062;47.480;8.768;2022-08-01T05:38:47;12.10;;;2.80;;
38264;SDS011;24062;47.480;8.768;2022-08-01T05:41:14;12.93;;;2.70;;
38264;SDS011;24062;47.480;8.768;2022-08-01T05:43:40;11.47;;;2.90;;
38264;SDS011;24062;47.480;8.768;2022-08-01T05:46:07;12.30;;;2.57;;
38264;SDS011;24062;47.480;8.768;2022-08-01T05:48:34;11.43;;;2.20;;
38264;SDS011;24062;47.480;8.768;2022-08-01T05:51:01;11.47;;;2.40;;
38264;SDS011;24062;47.480;8.768;2022-08-01T05:53:28;11.30;;;2.40;;
38264;SDS011;24062;47.480;8.768;2022-08-01T05:55:56;14.00;;;2.90;;
38264;SDS011;24062;47.480;8.768;2022-08-01T05:58:23;11.00;;;2.37;;
38264;SDS011;24062;47.480;8.768;2022-08-01T06:00:50;11.90;;;2.70;;
38264;SDS011;24062;47.480;8.768;2022-08-01T06:03:17;11.57;;;2.20;;
38264;SDS011;24062;47.480;8.768;2022-08-01T06:05:44;11.23;;;2.53;;
38264;SDS011;24062;47.480;8.768;2022-08-01T06:08:11;13.40;;;3.10;;
38264;SDS011;24062;47.480;8.768;2022-08-01T06:10:38;12.30;;;2.50;;
38264;SDS011;24062;47.480;8.768;2022-08-01T06:13:06;11.60;;;2.33;;
38264;SDS011;24062;47.480;8.768;2022-08-01T06:15:33;13.70;;;3.03;;
38264;SDS011;24062;47.480;8.768;2022-08-01T06:18:00;14.70;;;2.67;;
38264;SDS011;24062;47.480;8.768;2022-08-01T06:20:27;11.47;;;2.30;;
38264;SDS011;24062;47.480;8.768;2022-08-01T06:22:54;12.07;;;2.60;;
38264;SDS011;24062;47.480;8.768;2022-08-01T06:25:21;12.53;;;2.10;;
38264;SDS011;24062;47.480;8.768;2022-08-01T06:27:48;14.43;;;2.20;;
38264;SDS011;24062;47.480;8.768;2022-08-01T06:30:16;11.00;;;2.47;;
38264;SDS011;24062;47.480;8.768;2022-08-01T06:32:44;10.73;;;2.00;;
38264;SDS011;24062;47.480;8.768;2022-08-01T06:35:12;13.70;;;2.90;;
38264;SDS011;24062;47.480;8.768;2022-08-01T06:37:39;10.60;;;2.20;;
38264;SDS011;24062;47.480;8.768;2022-08-01T06:40:07;15.53;;;1.90;;
38264;SDS011;24062;47.480;8.768;2022-08-01T06:42:35;11.80;;;2.13;;
38264;SDS011;24062;47.480;8.768;2022-08-01T06:45:02;11.20;;;2.07;;
38264;SDS011;24062;47.480;8.768;2022-08-01T06:47:31;10.97;;;2.27;;
38264;SDS011;24062;47.480;8.768;2022-08-01T06:49:58;11.80;;;1.87;;
38264;SDS011;24062;47.480;8.768;2022-08-01T06:52:25;11.33;;;2.23;;
38264;SDS011;24062;47.480;8.768;2022-08-01T06:54:52;10.50;;;1.87;;
38264;SDS011;24062;47.480;8.768;2022-08-01T06:57:19;12.83;;;1.60;;
38264;SDS011;24062;47.480;8.768;2022-08-01T06:59:46;11.13;;;1.83;;
38264;SDS011;24062;47.480;8.768;2022-08-01T07:02:12;10.83;;;1.87;;
38264;SDS011;24062;47.480;8.768;2022-08-01T07:04:41;12.80;;;2.20;;
38264;SDS011;24062;47.480;8.768;2022-08-01T07:07:08;14.10;;;2.47;;
38264;SDS011;24062;47.480;8.768;2022-08-01T07:09:35;11.17;;;2.20;;
38264;SDS011;24062;47.480;8.768;2022-08-01T07:12:06;13.33;;;2.50;;
38264;SDS011;24062;47.480;8.768;2022-08-01T07:14:33;12.13;;;2.30;;
38264;SDS011;24062;47.480;8.768;2022-08-01T07:16:59;11.43;;;2.10;;
38264;SDS011;24062;47.480;8.768;2022-08-01T07:19:26;10.83;;;2.20;;
38264;SDS011;24062;47.480;8.768;2022-08-01T07:21:55;12.17;;;2.63;;
38264;SDS011;24062;47.480;8.768;2022-08-01T07:24:22;12.80;;;2.20;;
38264;SDS011;24062;47.480;8.768;2022-08-01T07:26:49;16.00;;;2.20;;
38264;SDS011;24062;47.480;8.768;2022-08-01T07:29:15;11.63;;;2.43;;
38264;SDS011;24062;47.480;8.768;2022-08-01T07:31:42;12.27;;;2.10;;
38264;SDS011;24062;47.480;8.768;2022-08-01T07:34:09;12.43;;;2.70;;
38264;SDS011;24062;47.480;8.768;2022-08-01T07:36:36;11.60;;;2.23;;
38264;SDS011;24062;47.480;8.768;2022-08-01T07:39:04;12.90;;;2.67;;
38264;SDS011;24062;47.480;8.768;2022-08-01T07:41:31;12.40;;;2.60;;
38264;SDS011;24062;47.480;8.768;2022-08-01T07:43:58;13.70;;;2.50;;
38264;SDS011;24062;47.480;8.768;2022-08-01T07:46:25;13.93;;;2.83;;
38264;SDS011;24062;47.480;8.768;2022-08-01T07:48:52;11.97;;;2.43;;
38264;SDS011;24062;47.480;8.768;2022-08-01T07:51:19;11.87;;;2.83;;
38264;SDS011;24062;47.480;8.768;2022-08-01T07:53:46;12.77;;;2.47;;
38264;SDS011;24062;47.480;8.768;2022-08-01T07:56:14;12.93;;;2.57;;
38264;SDS011;24062;47.480;8.768;2022-08-01T07:58:41;11.30;;;2.70;;
38264;SDS011;24062;47.480;8.768;2022-08-01T08:01:08;15.73;;;2.57;;
38264;SDS011;24062;47.480;8.768;2022-08-01T08:03:35;12.20;;;2.80;;
38264;SDS011;24062;47.480;8.768;2022-08-01T08:06:02;13.90;;;2.60;;
38264;SDS011;24062;47.480;8.768;2022-08-01T08:08:29;11.30;;;2.43;;
38264;SDS011;24062;47.480;8.768;2022-08-01T08:10:56;12.40;;;2.90;;
38264;SDS011;24062;47.480;8.768;2022-08-01T08:13:24;11.90;;;2.43;;
38264;SDS011;24062;47.480;8.768;2022-08-01T08:15:51;12.07;;;2.50;;
38264;SDS011;24062;47.480;8.768;2022-08-01T08:18:18;11.63;;;2.47;;
38264;SDS011;24062;47.480;8.768;2022-08-01T08:20:45;12.40;;;2.13;;
38264;SDS011;24062;47.480;8.768;2022-08-01T08:23:12;10.50;;;1.77;;
38264;SDS011;24062;47.480;8.768;2022-08-01T08:25:57;11.33;;;2.40;;
38264;SDS011;24062;47.480;8.768;2022-08-01T08:28:25;11.30;;;2.30;;
38264;SDS011;24062;47.480;8.768;2022-08-01T08:30:52;12.20;;;2.20;;
38264;SDS011;24062;47.480;8.768;2022-08-01T08:33:20;11.10;;;2.07;;
38264;SDS011;24062;47.480;8.768;2022-08-01T08:35:47;11.83;;;2.20;;
38264;SDS011;24062;47.480;8.768;2022-08-01T08:38:14;10.90;;;2.10;;
38264;SDS011;24062;47.480;8.768;2022-08-01T08:40:40;10.67;;;2.07;;
38264;SDS011;24062;47.480;8.768;2022-08-01T08:43:08;11.37;;;1.87;;
38264;SDS011;24062;47.480;8.768;2022-08-01T08:45:36;11.03;;;1.90;;
38264;SDS011;24062;47.480;8.768;2022-08-01T08:48:04;11.60;;;2.07;;
38264;SDS011;24062;47.480;8.768;2022-08-01T08:50:32;10.50;;;2.00;;
38264;SDS011;24062;47.480;8.768;2022-08-01T08:52:59;10.80;;;2.00;;
38264;SDS011;24062;47.480;8.768;2022-08-01T08:55:28;11.10;;;2.23;;
38264;SDS011;24062;47.480;8.768;2022-08-01T08:57:55;13.60;;;1.90;;
38264;SDS011;24062;47.480;8.768;2022-08-01T09:00:24;11.10;;;2.00;;
38264;SDS011;24062;47.480;8.768;2022-08-01T09:02:53;11.67;;;2.23;;
38264;SDS011;24062;47.480;8.768;2022-08-01T09:05:22;10.30;;;1.70;;
38264;SDS011;24062;47.480;8.768;2022-08-01T09:07:51;10.70;;;2.10;;
38264;SDS011;24062;47.480;8.768;2022-08-01T09:10:18;11.97;;;2.20;;
38264;SDS011;24062;47.480;8.768;2022-08-01T09:13:01;10.97;;;1.93;;
38264;SDS011;24062;47.480;8.768;2022-08-01T09:15:37;12.40;;;2.13;;
38264;SDS011;24062;47.480;8.768;2022-08-01T09:18:06;11.47;;;2.20;;
38264;SDS011;24062;47.480;8.768;2022-08-01T09:20:33;12.30;;;2.10;;
38264;SDS011;24062;47.480;8.768;2022-08-01T09:23:01;12.27;;;2.07;;
38264;SDS011;24062;47.480;8.768;2022-08-01T09:25:28;11.80;;;2.30;;
38264;SDS011;24062;47.480;8.768;2022-08-01T09:28:02;10.60;;;2.10;;
38264;SDS011;24062;47.480;8.768;2022-08-01T09:30:36;14.00;;;2.10;;
38264;SDS011;24062;47.480;8.768;2022-08-01T09:33:03;10.50;;;1.70;;
38264;SDS011;24062;47.480;8.768;2022-08-01T09:35:32;10.93;;;1.93;;
38264;SDS011;24062;47.480;8.768;2022-08-01T09:38:11;10.70;;;1.90;;
38264;SDS011;24062;47.480;8.768;2022-08-01T09:40:50;10.70;;;1.97;;
38264;SDS011;24062;47.480;8.768;2022-08-01T09:43:17;13.90;;;1.73;;
38264;SDS011;24062;47.480;8.768;2022-08-01T09:45:45;11.23;;;1.87;;
38264;SDS011;24062;47.480;8.768;2022-08-01T09:48:12;10.40;;;1.87;;
38264;SDS011;24062;47.480;8.768;2022-08-01T09:50:43;12.17;;;1.90;;
38264;SDS011;24062;47.480;8.768;2022-08-01T09:53:12;10.30;;;1.50;;
38264;SDS011;24062;47.480;8.768;2022-08-01T09:55:39;14.60;;;1.60;;
38264;SDS011;24062;47.480;8.768;2022-08-01T09:58:07;10.20;;;1.50;;
38264;SDS011;24062;47.480;8.768;2022-08-01T10:00:36;10.50;;;1.57;;
38264;SDS011;24062;47.480;8.768;2022-08-01T10:03:18;11.30;;;1.80;;
38264;SDS011;24062;47.480;8.768;2022-08-01T10:05:48;10.97;;;1.97;;
38264;SDS011;24062;47.480;8.768;2022-08-01T10:08:16;12.43;;;1.90;;
38264;SDS011;24062;47.480;8.768;2022-08-01T10:10:44;10.43;;;1.70;;
38264;SDS011;24062;47.480;8.768;2022-08-01T10:13:32;11.03;;;1.40;;
38264;SDS011;24062;47.480;8.768;2022-08-01T10:16:00;10.53;;;1.63;;
38264;SDS011;24062;47.480;8.768;2022-08-01T10:18:27;11.10;;;1.60;;
38264;SDS011;24062;47.480;8.768;2022-08-01T10:20:59;12.37;;;1.70;;
38264;SDS011;24062;47.480;8.768;2022-08-01T10:23:26;11.30;;;1.83;;
38264;SDS011;24062;47.480;8.768;2022-08-01T10:25:56;12.23;;;1.53;;
38264;SDS011;24062;47.480;8.768;2022-08-01T10:28:25;11.70;;;1.67;;
38264;SDS011;24062;47.480;8.768;2022-08-01T10:30:52;14.40;;;1.60;;
38264;SDS011;24062;47.480;8.768;2022-08-01T10:33:21;10.05;;;1.33;;
38264;SDS011;24062;47.480;8.768;2022-08-01T10:35:49;11.18;;;1.40;;
38264;SDS011;24062;47.480;8.768;2022-08-01T10:38:17;11.10;;;1.98;;
38264;SDS011;24062;47.480;8.768;2022-08-01T10:40:44;13.55;;;2.10;;
38264;SDS011;24062;47.480;8.768;2022-08-01T10:43:11;11.20;;;2.00;;
38264;SDS011;24062;47.480;8.768;2022-08-01T10:45:39;12.43;;;2.25;;
38264;SDS011;24062;47.480;8.768;2022-08-01T10:48:09;12.63;;;2.08;;
38264;SDS011;24062;47.480;8.768;2022-08-01T10:50:41;10.52;;;1.65;;
38264;SDS011;24062;47.480;8.768;2022-08-01T10:53:11;11.93;;;1.98;;
38264;SDS011;24062;47.480;8.768;2022-08-01T10:55:51;13.27;;;1.95;;
38264;SDS011;24062;47.480;8.768;2022-08-01T10:58:25;11.90;;;1.85;;
38264;SDS011;24062;47.480;8.768;2022-08-01T11:06:46;11.60;;;1.73;;
38264;SDS011;24062;47.480;8.768;2022-08-01T11:09:29;11.90;;;1.90;;
38264;SDS011;24062;47.480;8.768;2022-08-01T11:12:02;12.20;;;1.77;;
38264;SDS011;24062;47.480;8.768;2022-08-01T11:14:34;11.75;;;1.75;;
38264;SDS011;24062;47.480;8.768;2022-08-01T11:17:31;11.68;;;1.98;;
38264;SDS011;24062;47.480;8.768;2022-08-01T11:20:06;11.00;;;2.13;;
38264;SDS011;24062;47.480;8.768;2022-08-01T11:26:06;10.57;;;1.75;;
38264;SDS011;24062;47.480;8.768;2022-08-01T11:28:39;11.15;;;1.65;;
38264;SDS011;24062;47.480;8.768;2022-08-01T11:33:56;11.13;;;1.80;;
38264;SDS011;24062;47.480;8.768;2022-08-01T11:36:24;10.85;;;1.80;;
38264;SDS011;24062;47.480;8.768;2022-08-01T11:41:46;11.18;;;2.08;;
38264;SDS011;24062;47.480;8.768;2022-08-01T11:44:16;11.90;;;1.67;;
38264;SDS011;24062;47.480;8.768;2022-08-01T11:46:49;11.05;;;1.90;;
38264;SDS011;24062;47.480;8.768;2022-08-01T11:49:27;10.98;;;1.58;;
38264;SDS011;24062;47.480;8.768;2022-08-01T11:52:11;11.18;;;1.67;;
38264;SDS011;24062;47.480;8.768;2022-08-01T11:54:39;10.32;;;1.67;;
38264;SDS011;24062;47.480;8.768;2022-08-01T11:57:08;10.15;;;1.38;;
38264;SDS011;24062;47.480;8.768;2022-08-01T11:59:39;10.63;;;1.58;;
38264;SDS011;24062;47.480;8.768;2022-08-01T12:02:17;12.35;;;1.85;;
38264;SDS011;24062;47.480;8.768;2022-08-01T12:04:49;10.80;;;1.75;;
38264;SDS011;24062;47.480;8.768;2022-08-01T12:07:18;10.50;;;1.33;;
38264;SDS011;24062;47.480;8.768;2022-08-01T12:09:46;11.13;;;1.60;;
38264;SDS011;24062;47.480;8.768;2022-08-01T12:12:17;12.73;;;1.88;;
38264;SDS011;24062;47.480;8.768;2022-08-01T12:14:46;11.18;;;1.55;;
38264;SDS011;24062;47.480;8.768;2022-08-01T12:17:20;10.65;;;1.50;;
38264;SDS011;24062;47.480;8.768;2022-08-01T12:19:53;10.60;;;1.67;;
38264;SDS011;24062;47.480;8.768;2022-08-01T12:22:21;11.48;;;1.30;;
38264;SDS011;24062;47.480;8.768;2022-08-01T12:24:49;10.30;;;1.27;;
38264;SDS011;24062;47.480;8.768;2022-08-01T12:27:23;11.20;;;1.45;;
38264;SDS011;24062;47.480;8.768;2022-08-01T12:29:53;10.82;;;1.30;;
38264;SDS011;24062;47.480;8.768;2022-08-01T12:32:22;10.30;;;1.50;;
38264;SDS011;24062;47.480;8.768;2022-08-01T12:34:50;10.30;;;1.30;;
38264;SDS011;24062;47.480;8.768;2022-08-01T12:37:18;10.93;;;1.60;;
38264;SDS011;24062;47.480;8.768;2022-08-01T12:39:45;10.13;;;1.30;;
38264;SDS011;24062;47.480;8.768;2022-08-01T12:42:13;10.70;;;1.30;;
38264;SDS011;24062;47.480;8.768;2022-08-01T12:44:41;10.98;;;1.45;;
38264;SDS011;24062;47.480;8.768;2022-08-01T12:47:12;11.32;;;1.30;;
38264;SDS011;24062;47.480;8.768;2022-08-01T12:49:41;10.43;;;1.30;;
38264;SDS011;24062;47.480;8.768;2022-08-01T12:52:09;11.15;;;1.40;;
38264;SDS011;24062;47.480;8.768;2022-08-01T12:57:26;10.80;;;1.40;;
38264;SDS011;24062;47.480;8.768;2022-08-01T12:59:53;11.13;;;1.20;;
38264;SDS011;24062;47.480;8.768;2022-08-01T13:02:32;11.55;;;1.20;;
38264;SDS011;24062;47.480;8.768;2022-08-01T13:05:00;10.25;;;1.10;;
38264;SDS011;24062;47.480;8.768;2022-08-01T13:07:34;11.05;;;1.08;;
38264;SDS011;24062;47.480;8.768;2022-08-01T13:10:05;11.23;;;1.10;;
38264;SDS011;24062;47.480;8.768;2022-08-01T13:12:33;9.55;;;0.90;;
38264;SDS011;24062;47.480;8.768;2022-08-01T13:15:15;10.55;;;1.10;;
38264;SDS011;24062;47.480;8.768;2022-08-01T13:17:44;9.23;;;0.98;;
38264;SDS011;24062;47.480;8.768;2022-08-01T13:20:20;9.70;;;1.15;;
38264;SDS011;24062;47.480;8.768;2022-08-01T13:22:51;10.63;;;1.25;;
38264;SDS011;24062;47.480;8.768;2022-08-01T13:25:18;9.90;;;1.30;;
38264;SDS011;24062;47.480;8.768;2022-08-01T13:27:46;10.05;;;1.20;;
38264;SDS011;24062;47.480;8.768;2022-08-01T13:30:13;10.63;;;1.17;;
38264;SDS011;24062;47.480;8.768;2022-08-01T13:32:42;9.38;;;1.25;;
38264;SDS011;24062;47.480;8.768;2022-08-01T13:35:11;9.57;;;1.38;;
38264;SDS011;24062;47.480;8.768;2022-08-01T13:37:39;9.90;;;1.30;;
38264;SDS011;24062;47.480;8.768;2022-08-01T13:40:08;9.05;;;0.90;;
38264;SDS011;24062;47.480;8.768;2022-08-01T13:42:36;9.70;;;1.33;;
38264;SDS011;24062;47.480;8.768;2022-08-01T13:45:03;10.52;;;1.30;;
38264;SDS011;24062;47.480;8.768;2022-08-01T13:47:34;11.15;;;1.58;;
38264;SDS011;24062;47.480;8.768;2022-08-01T13:50:01;10.23;;;1.52;;
38264;SDS011;24062;47.480;8.768;2022-08-01T13:52:30;9.60;;;1.13;;
38264;SDS011;24062;47.480;8.768;2022-08-01T13:54:57;9.50;;;1.30;;
38264;SDS011;24062;47.480;8.768;2022-08-01T13:57:24;9.80;;;1.75;;
38264;SDS011;24062;47.480;8.768;2022-08-01T13:59:51;10.00;;;1.50;;
38264;SDS011;24062;47.480;8.768;2022-08-01T14:02:18;10.55;;;1.42;;
38264;SDS011;24062;47.480;8.768;2022-08-01T14:04:45;9.45;;;1.30;;
38264;SDS011;24062;47.480;8.768;2022-08-01T14:07:12;9.27;;;1.50;;
38264;SDS011;24062;47.480;8.768;2022-08-01T14:09:40;9.65;;;1.67;;
38264;SDS011;24062;47.480;8.768;2022-08-01T14:12:07;10.52;;;1.50;;
38264;SDS011;24062;47.480;8.768;2022-08-01T14:14:34;9.13;;;1.30;;
38264;SDS011;24062;47.480;8.768;2022-08-01T14:17:01;9.25;;;1.33;;
38264;SDS011;24062;47.480;8.768;2022-08-01T14:19:28;9.27;;;1.65;;
38264;SDS011;24062;47.480;8.768;2022-08-01T14:21:56;9.30;;;1.38;;
38264;SDS011;24062;47.480;8.768;2022-08-01T14:24:23;9.18;;;1.30;;
38264;SDS011;24062;47.480;8.768;2022-08-01T14:26:52;9.07;;;1.35;;
38264;SDS011;24062;47.480;8.768;2022-08-01T14:29:19;9.13;;;1.10;;
38264;SDS011;24062;47.480;8.768;2022-08-01T14:31:46;9.27;;;1.35;;
38264;SDS011;24062;47.480;8.768;2022-08-01T14:34:13;9.88;;;1.27;;
38264;SDS011;24062;47.480;8.768;2022-08-01T14:36:40;8.65;;;1.00;;
38264;SDS011;24062;47.480;8.768;2022-08-01T14:39:07;12.07;;;1.60;;
38264;SDS011;24062;47.480;8.768;2022-08-01T14:41:34;9.20;;;1.13;;
38264;SDS011;24062;47.480;8.768;2022-08-01T14:44:03;8.98;;;1.00;;
38264;SDS011;24062;47.480;8.768;2022-08-01T14:46:30;8.75;;;0.90;;
38264;SDS011;24062;47.480;8.768;2022-08-01T14:48:57;8.88;;;0.90;;
38264;SDS011;24062;47.480;8.768;2022-08-01T14:51:24;8.77;;;1.00;;
38264;SDS011;24062;47.480;8.768;2022-08-01T14:53:51;10.45;;;1.30;;
38264;SDS011;24062;47.480;8.768;2022-08-01T14:56:18;9.65;;;1.08;;
38264;SDS011;24062;47.480;8.768;2022-08-01T14:58:45;9.25;;;0.90;;
38264;SDS011;24062;47.480;8.768;2022-08-01T15:01:14;8.93;;;0.88;;
38264;SDS011;24062;47.480;8.768;2022-08-01T15:03:41;9.32;;;0.98;;
38264;SDS011;24062;47.480;8.768;2022-08-01T15:06:08;9.60;;;1.02;;